sensor_id;sensor_type;location;lat;lon;timestamp;pressure;altitude;pressure_sealevel;temperature;humidity
75036;BME280;73110;51.658;5.826;2023-10-31T00:00:16;99475.25;;;10.42;100.00
75036;BME280;73110;51.658;5.826;2023-10-31T00:02:17;99462.41;;;10.39;100.00
75036;BME280;73110;51.658;5.826;2023-10-31T00:04:18;99474.78;;;10.36;100.00
75036;BME280;73110;51.658;5.826;2023-10-31T00:06:19;99481.34;;;10.35;100.00
75036;BME280;73110;51.658;5.826;2023-10-31T00:08:20;99482.88;;;10.33;100.00
75036;BME280;73110;51.658;5.826;2023-10-31T00:10:21;99485.91;;;10.27;100.00
75036;BME280;73110;51.658;5.826;2023-10-31T00:12:22;99492.47;;;10.23;100.00
75036;BME280;73110;51.658;5.826;2023-10-31T00:14:23;99507.13;;;10.18;100.00
75036;BME280;73110;51.658;5.826;2023-10-31T00:16:24;99507.09;;;10.14;100.00
75036;BME280;73110;51.658;5.826;2023-10-31T00:18:25;99513.63;;;10.10;100.00
75036;BME280;73110;51.658;5.826;2023-10-31T00:20:25;99520.97;;;10.09;100.00
75036;BME280;73110;51.658;5.826;2023-10-31T00:22:26;99526.78;;;10.08;100.00
75036;BME280;73110;51.658;5.826;2023-10-31T00:24:27;99525.59;;;10.05;100.00
75036;BME280;73110;51.658;5.826;2023-10-31T00:26:28;99518.59;;;10.04;100.00
75036;BME280;73110;51.658;5.826;2023-10-31T00:28:29;99536.81;;;10.04;100.00
75036;BME280;73110;51.658;5.826;2023-10-31T00:30:30;99525.97;;;10.04;100.00
75036;BME280;73110;51.658;5.826;2023-10-31T00:32:31;99518.22;;;10.06;100.00
75036;BME280;73110;51.658;5.826;2023-10-31T00:34:32;99535.28;;;10.06;100.00
75036;BME280;73110;51.658;5.826;2023-10-31T00:36:33;99533.34;;;10.07;100.00
75036;BME280;73110;51.658;5.826;2023-10-31T00:38:34;99538.38;;;10.08;100.00
75036;BME280;73110;51.658;5.826;2023-10-31T00:40:35;99541.91;;;10.09;100.00
75036;BME280;73110;51.658;5.826;2023-10-31T00:42:37;99545.38;;;10.09;100.00
75036;BME280;73110;51.658;5.826;2023-10-31T00:44:38;99547.31;;;10.09;100.00
75036;BME280;73110;51.658;5.826;2023-10-31T00:46:40;99548.88;;;10.10;100.00
75036;BME280;73110;51.658;5.826;2023-10-31T00:48:41;99561.28;;;10.11;100.00
75036;BME280;73110;51.658;5.826;2023-10-31T00:50:43;99559.78;;;10.13;100.00
75036;BME280;73110;51.658;5.826;2023-10-31T00:52:45;99558.19;;;10.12;100.00
75036;BME280;73110;51.658;5.826;2023-10-31T00:54:46;99560.53;;;10.14;100.00
75036;BME280;73110;51.658;5.826;2023-10-31T00:56:47;99570.63;;;10.13;100.00
75036;BME280;73110;51.658;5.826;2023-10-31T00:58:48;99565.19;;;10.13;100.00
75036;BME280;73110;51.658;5.826;2023-10-31T01:00:49;99567.09;;;10.13;100.00
75036;BME280;73110;51.658;5.826;2023-10-31T01:02:50;99576.44;;;10.16;100.00
75036;BME280;73110;51.658;5.826;2023-10-31T01:04:51;99573.72;;;10.16;100.00
75036;BME280;73110;51.658;5.826;2023-10-31T01:06:52;99569.84;;;10.17;100.00
75036;BME280;73110;51.658;5.826;2023-10-31T01:08:53;99575.31;;;10.20;100.00
75036;BME280;73110;51.658;5.826;2023-10-31T01:10:53;99578.41;;;10.19;100.00
75036;BME280;73110;51.658;5.826;2023-10-31T01:12:54;99584.59;;;10.19;100.00
75036;BME280;73110;51.658;5.826;2023-10-31T01:14:56;99583.13;;;10.22;100.00
75036;BME280;73110;51.658;5.826;2023-10-31T01:16:57;99593.22;;;10.25;100.00
75036;BME280;73110;51.658;5.826;2023-10-31T01:18:58;99585.50;;;10.27;100.00
75036;BME280;73110;51.658;5.826;2023-10-31T01:20:59;99592.09;;;10.29;100.00
75036;BME280;73110;51.658;5.826;2023-10-31T01:23:00;99585.53;;;10.30;100.00
75036;BME280;73110;51.658;5.826;2023-10-31T01:25:02;99599.50;;;10.33;100.00
75036;BME280;73110;51.658;5.826;2023-10-31T01:27:04;99601.09;;;10.34;100.00
75036;BME280;73110;51.658;5.826;2023-10-31T01:29:05;99605.31;;;10.35;100.00
75036;BME280;73110;51.658;5.826;2023-10-31T01:31:06;99607.28;;;10.34;100.00
75036;BME280;73110;51.658;5.826;2023-10-31T01:33:07;99610.41;;;10.36;100.00
75036;BME280;73110;51.658;5.826;2023-10-31T01:35:08;99616.25;;;10.38;100.00
75036;BME280;73110;51.658;5.826;2023-10-31T01:37:08;99611.25;;;10.40;100.00
75036;BME280;73110;51.658;5.826;2023-10-31T01:39:09;99611.25;;;10.40;100.00
75036;BME280;73110;51.658;5.826;2023-10-31T01:41:10;99620.19;;;10.41;100.00
75036;BME280;73110;51.658;5.826;2023-10-31T01:43:11;99612.81;;;10.41;100.00
75036;BME280;73110;51.658;5.826;2023-10-31T01:45:12;99618.19;;;10.38;100.00
75036;BME280;73110;51.658;5.826;2023-10-31T01:47:13;99606.91;;;10.36;100.00
75036;BME280;73110;51.658;5.826;2023-10-31T01:49:14;99618.53;;;10.36;100.00
75036;BME280;73110;51.658;5.826;2023-10-31T01:51:15;99617.81;;;10.39;100.00
75036;BME280;73110;51.658;5.826;2023-10-31T01:53:17;99623.25;;;10.39;100.00
75036;BME280;73110;51.658;5.826;2023-10-31T01:55:19;99626.75;;;10.40;100.00
75036;BME280;73110;51.658;5.826;2023-10-31T01:57:21;99632.59;;;10.42;100.00
75036;BME280;73110;51.658;5.826;2023-10-31T01:59:26;99630.22;;;10.40;100.00
75036;BME280;73110;51.658;5.826;2023-10-31T02:01:28;99627.53;;;10.40;100.00
75036;BME280;73110;51.658;5.826;2023-10-31T02:03:30;99628.66;;;10.39;100.00
75036;BME280;73110;51.658;5.826;2023-10-31T02:05:31;99629.47;;;10.40;100.00
75036;BME280;73110;51.658;5.826;2023-10-31T02:07:35;99632.53;;;10.38;100.00
75036;BME280;73110;51.658;5.826;2023-10-31T02:09:36;99627.91;;;10.39;100.00
75036;BME280;73110;51.658;5.826;2023-10-31T02:11:37;99627.91;;;10.39;100.00
75036;BME280;73110;51.658;5.826;2023-10-31T02:13:38;99616.25;;;10.38;100.00
75036;BME280;73110;51.658;5.826;2023-10-31T02:15:39;99612.78;;;10.38;100.00
75036;BME280;73110;51.658;5.826;2023-10-31T02:17:40;99617.81;;;10.39;100.00
75036;BME280;73110;51.658;5.826;2023-10-31T02:19:41;99617.81;;;10.39;100.00
75036;BME280;73110;51.658;5.826;2023-10-31T02:21:42;99620.91;;;10.38;100.00
75036;BME280;73110;51.658;5.826;2023-10-31T02:23:43;99623.25;;;10.39;100.00
75036;BME280;73110;51.658;5.826;2023-10-31T02:25:59;99631.03;;;10.41;100.00
75036;BME280;73110;51.658;5.826;2023-10-31T02:28:00;99615.91;;;10.40;100.00
75036;BME280;73110;51.658;5.826;2023-10-31T02:30:01;99623.25;;;10.39;100.00
75036;BME280;73110;51.658;5.826;2023-10-31T02:32:02;99618.63;;;10.40;100.00
75036;BME280;73110;51.658;5.826;2023-10-31T02:34:03;99619.38;;;10.40;100.00
75036;BME280;73110;51.658;5.826;2023-10-31T02:36:05;99619.03;;;10.42;100.00
75036;BME280;73110;51.658;5.826;2023-10-31T02:38:06;99621.75;;;10.42;100.00
75036;BME280;73110;51.658;5.826;2023-10-31T02:40:08;99617.84;;;10.43;100.00
75036;BME280;73110;51.658;5.826;2023-10-31T02:42:10;99629.50;;;10.43;100.00
75036;BME280;73110;51.658;5.826;2023-10-31T02:44:11;99620.22;;;10.44;100.00
75036;BME280;73110;51.658;5.826;2023-10-31T02:46:12;99624.13;;;10.47;100.00
75036;BME280;73110;51.658;5.826;2023-10-31T02:48:15;99629.53;;;10.47;100.00
75036;BME280;73110;51.658;5.826;2023-10-31T02:50:16;99633.03;;;10.48;100.00
75036;BME280;73110;51.658;5.826;2023-10-31T02:52:17;99634.59;;;10.49;100.00
75036;BME280;73110;51.658;5.826;2023-10-31T02:54:17;99638.09;;;10.49;100.00
75036;BME280;73110;51.658;5.826;2023-10-31T02:56:19;99631.50;;;10.50;100.00
75036;BME280;73110;51.658;5.826;2023-10-31T02:58:19;99645.50;;;10.52;100.00
75036;BME280;73110;51.658;5.826;2023-10-31T03:00:20;99632.72;;;10.53;100.00
75036;BME280;73110;51.658;5.826;2023-10-31T03:02:21;99626.50;;;10.52;100.00
75036;BME280;73110;51.658;5.826;2023-10-31T03:04:23;99635.44;;;10.53;100.00
75036;BME280;73110;51.658;5.826;2023-10-31T03:06:24;99632.72;;;10.53;100.00
75036;BME280;73110;51.658;5.826;2023-10-31T03:08:25;99632.34;;;10.54;100.00
75036;BME280;73110;51.658;5.826;2023-10-31T03:10:26;99631.53;;;10.54;100.00
75036;BME280;73110;51.658;5.826;2023-10-31T03:12:28;99627.66;;;10.51;100.00
75036;BME280;73110;51.658;5.826;2023-10-31T03:14:29;99633.50;;;10.53;100.00
75036;BME280;73110;51.658;5.826;2023-10-31T03:16:30;99644.34;;;10.53;100.00
75036;BME280;73110;51.658;5.826;2023-10-31T03:18:30;99633.91;;;10.55;100.00
75036;BME280;73110;51.658;5.826;2023-10-31T03:20:31;99634.69;;;10.56;100.00
75036;BME280;73110;51.658;5.826;2023-10-31T03:22:32;99635.47;;;10.56;100.00
75036;BME280;73110;51.658;5.826;2023-10-31T03:24:33;99644.00;;;10.58;100.00
75036;BME280;73110;51.658;5.826;2023-10-31T03:26:34;99652.56;;;10.60;100.00
75036;BME280;73110;51.658;5.826;2023-10-31T03:28:35;99652.56;;;10.60;100.00
75036;BME280;73110;51.658;5.826;2023-10-31T03:30:37;99650.66;;;10.61;100.00
75036;BME280;73110;51.658;5.826;2023-10-31T03:32:38;99658.41;;;10.63;100.00
75036;BME280;73110;51.658;5.826;2023-10-31T03:34:40;99653.41;;;10.65;100.00
75036;BME280;73110;51.658;5.826;2023-10-31T03:36:41;99666.56;;;10.63;100.00
75036;BME280;73110;51.658;5.826;2023-10-31T03:38:41;99668.88;;;10.64;100.00
75036;BME280;73110;51.658;5.826;2023-10-31T03:40:42;99670.47;;;10.65;100.00
75036;BME280;73110;51.658;5.826;2023-10-31T03:42:46;99673.59;;;10.67;100.00
75036;BME280;73110;51.658;5.826;2023-10-31T03:44:47;99668.94;;;10.68;100.00
75036;BME280;73110;51.658;5.826;2023-10-31T03:46:48;99673.53;;;10.64;100.00
75036;BME280;73110;51.658;5.826;2023-10-31T03:48:49;99685.94;;;10.61;100.00
75036;BME280;73110;51.658;5.826;2023-10-31T03:50:50;99676.63;;;10.62;100.00
75036;BME280;73110;51.658;5.826;2023-10-31T03:52:51;99681.66;;;10.60;100.00
75036;BME280;73110;51.658;5.826;2023-10-31T03:54:53;99686.28;;;10.59;100.00
75036;BME280;73110;51.658;5.826;2023-10-31T03:56:54;99692.91;;;10.62;100.00
75036;BME280;73110;51.658;5.826;2023-10-31T03:58:55;99692.13;;;10.61;100.00
75036;BME280;73110;51.658;5.826;2023-10-31T04:00:56;99701.41;;;10.60;100.00
75036;BME280;73110;51.658;5.826;2023-10-31T04:02:57;99696.41;;;10.63;100.00
75036;BME280;73110;51.658;5.826;2023-10-31T04:04:58;99701.47;;;10.64;100.00
75036;BME280;73110;51.658;5.826;2023-10-31T04:06:59;99696.81;;;10.65;100.00
75036;BME280;73110;51.658;5.826;2023-10-31T04:09:00;99700.31;;;10.65;100.00
75036;BME280;73110;51.658;5.826;2023-10-31T04:11:01;99706.50;;;10.66;100.00
75036;BME280;73110;51.658;5.826;2023-10-31T04:13:02;99708.44;;;10.65;100.00
75036;BME280;73110;51.658;5.826;2023-10-31T04:15:03;99706.88;;;10.64;100.00
75036;BME280;73110;51.658;5.826;2023-10-31T04:17:04;99714.25;;;10.64;100.00
75036;BME280;73110;51.658;5.826;2023-10-31T04:19:05;99708.41;;;10.61;100.00
75036;BME280;73110;51.658;5.826;2023-10-31T04:21:06;99717.69;;;10.60;100.00
75036;BME280;73110;51.658;5.826;2023-10-31T04:23:07;99719.63;;;10.60;100.00
75036;BME280;73110;51.658;5.826;2023-10-31T04:25:08;99722.75;;;10.62;100.00
75036;BME280;73110;51.658;5.826;2023-10-31T04:27:09;99719.63;;;10.60;100.00
75036;BME280;73110;51.658;5.826;2023-10-31T04:29:10;99725.41;;;10.58;100.00
75036;BME280;73110;51.658;5.826;2023-10-31T04:31:11;99728.13;;;10.58;100.00
75036;BME280;73110;51.658;5.826;2023-10-31T04:33:12;99727.38;;;10.58;100.00
75036;BME280;73110;51.658;5.826;2023-10-31T04:35:13;99733.22;;;10.60;100.00
75036;BME280;73110;51.658;5.826;2023-10-31T04:37:14;99727.38;;;10.58;100.00
75036;BME280;73110;51.658;5.826;2023-10-31T04:39:15;99742.88;;;10.57;100.00
75036;BME280;73110;51.658;5.826;2023-10-31T04:41:16;99741.31;;;10.56;100.00
75036;BME280;73110;51.658;5.826;2023-10-31T04:43:17;99737.78;;;10.56;100.00
75036;BME280;73110;51.658;5.826;2023-10-31T04:45:18;99740.50;;;10.56;100.00
75036;BME280;73110;51.658;5.826;2023-10-31T04:47:44;99740.50;;;10.56;100.00
75036;BME280;73110;51.658;5.826;2023-10-31T04:49:45;99745.16;;;10.55;100.00
75036;BME280;73110;51.658;5.826;2023-10-31T04:51:46;99744.38;;;10.55;100.00
75036;BME280;73110;51.658;5.826;2023-10-31T04:53:47;99745.94;;;10.56;100.00
75036;BME280;73110;51.658;5.826;2023-10-31T04:55:48;99750.22;;;10.57;100.00
75036;BME280;73110;51.658;5.826;2023-10-31T04:57:49;99762.22;;;10.56;100.00
75036;BME280;73110;51.658;5.826;2023-10-31T04:59:49;99765.72;;;10.56;100.00
75036;BME280;73110;51.658;5.826;2023-10-31T05:01:51;99763.78;;;10.57;100.00
75036;BME280;73110;51.658;5.826;2023-10-31T05:03:52;99770.78;;;10.58;100.00
75036;BME280;73110;51.658;5.826;2023-10-31T05:05:54;99767.28;;;10.57;100.00
75036;BME280;73110;51.658;5.826;2023-10-31T05:07:54;99773.91;;;10.60;100.00
75036;BME280;73110;51.658;5.826;2023-10-31T05:09:55;99768.13;;;10.61;100.00
75036;BME280;73110;51.658;5.826;2023-10-31T05:11:56;99780.53;;;10.63;100.00
75036;BME280;73110;51.658;5.826;2023-10-31T05:13:57;99772.41;;;10.63;100.00
75036;BME280;73110;51.658;5.826;2023-10-31T05:15:58;99777.44;;;10.64;100.00
75036;BME280;73110;51.658;5.826;2023-10-31T05:17:59;99779.03;;;10.65;100.00
75036;BME280;73110;51.658;5.826;2023-10-31T05:20:00;99780.59;;;10.66;100.00
75036;BME280;73110;51.658;5.826;2023-10-31T05:22:01;99780.59;;;10.66;100.00
75036;BME280;73110;51.658;5.826;2023-10-31T05:24:02;99785.22;;;10.66;100.00
75036;BME280;73110;51.658;5.826;2023-10-31T05:26:05;99785.22;;;10.66;100.00
75036;BME280;73110;51.658;5.826;2023-10-31T05:28:06;99785.97;;;10.63;100.00
75036;BME280;73110;51.658;5.826;2023-10-31T05:30:07;99794.47;;;10.61;100.00
75036;BME280;73110;51.658;5.826;2023-10-31T05:32:08;99789.78;;;10.58;100.00
75036;BME280;73110;51.658;5.826;2023-10-31T05:34:09;99793.63;;;10.57;100.00
75036;BME280;73110;51.658;5.826;2023-10-31T05:36:20;99792.44;;;10.54;100.00
75036;BME280;73110;51.658;5.826;2023-10-31T05:38:22;99795.53;;;10.53;100.00
75036;BME280;73110;51.658;5.826;2023-10-31T05:40:23;99791.97;;;10.49;100.00
75036;BME280;73110;51.658;5.826;2023-10-31T05:42:25;99793.47;;;10.46;100.00
75036;BME280;73110;51.658;5.826;2023-10-31T05:44:28;99791.91;;;10.45;100.00
75036;BME280;73110;51.658;5.826;2023-10-31T05:46:29;99799.28;;;10.44;100.00
75036;BME280;73110;51.658;5.826;2023-10-31T05:48:31;99805.06;;;10.43;100.00
75036;BME280;73110;51.658;5.826;2023-10-31T05:50:32;99800.00;;;10.41;100.00
75036;BME280;73110;51.658;5.826;2023-10-31T05:52:33;99800.38;;;10.40;100.00
75036;BME280;73110;51.658;5.826;2023-10-31T05:54:34;99807.38;;;10.41;100.00
75036;BME280;73110;51.658;5.826;2023-10-31T05:56:34;99820.94;;;10.41;100.00
75036;BME280;73110;51.658;5.826;2023-10-31T05:58:37;99818.22;;;10.41;100.00
75036;BME280;73110;51.658;5.826;2023-10-31T06:00:38;99823.66;;;10.41;100.00
75036;BME280;73110;51.658;5.826;2023-10-31T06:02:39;99829.06;;;10.41;100.00
75036;BME280;73110;51.658;5.826;2023-10-31T06:04:40;99835.69;;;10.43;100.00
75036;BME280;73110;51.658;5.826;2023-10-31T06:06:41;99834.13;;;10.42;100.00
75036;BME280;73110;51.658;5.826;2023-10-31T06:08:42;99833.75;;;10.44;100.00
75036;BME280;73110;51.658;5.826;2023-10-31T06:10:42;99839.19;;;10.44;100.00
75036;BME280;73110;51.658;5.826;2023-10-31T06:12:43;99845.75;;;10.43;100.00
75036;BME280;73110;51.658;5.826;2023-10-31T06:14:44;99850.41;;;10.42;100.00
75036;BME280;73110;51.658;5.826;2023-10-31T06:16:45;99851.56;;;10.41;100.00
75036;BME280;73110;51.658;5.826;2023-10-31T06:18:46;99862.41;;;10.41;100.00
75036;BME280;73110;51.658;5.826;2023-10-31T06:20:47;99862.81;;;10.43;100.00
75036;BME280;73110;51.658;5.826;2023-10-31T06:22:48;99853.88;;;10.43;100.00
75036;BME280;73110;51.658;5.826;2023-10-31T06:24:49;99864.41;;;10.44;100.00
75036;BME280;73110;51.658;5.826;2023-10-31T06:26:50;99865.16;;;10.45;100.00
75036;BME280;73110;51.658;5.826;2023-10-31T06:28:51;99856.59;;;10.43;100.00
75036;BME280;73110;51.658;5.826;2023-10-31T06:30:51;99873.25;;;10.41;100.00
75036;BME280;73110;51.658;5.826;2023-10-31T06:32:53;99873.25;;;10.41;100.00
75036;BME280;73110;51.658;5.826;2023-10-31T06:34:54;99876.78;;;10.42;100.00
75036;BME280;73110;51.658;5.826;2023-10-31T06:36:55;99875.97;;;10.41;100.00
75036;BME280;73110;51.658;5.826;2023-10-31T06:38:56;99874.06;;;10.42;100.00
75036;BME280;73110;51.658;5.826;2023-10-31T06:40:57;99874.81;;;10.42;100.00
75036;BME280;73110;51.658;5.826;2023-10-31T06:42:58;99888.81;;;10.44;100.00
75036;BME280;73110;51.658;5.826;2023-10-31T06:44:59;99880.69;;;10.44;100.00
75036;BME280;73110;51.658;5.826;2023-10-31T06:47:00;99884.97;;;10.45;100.00
75036;BME280;73110;51.658;5.826;2023-10-31T06:49:01;99885.72;;;10.46;100.00
75036;BME280;73110;51.658;5.826;2023-10-31T06:51:02;99889.59;;;10.45;100.00
75036;BME280;73110;51.658;5.826;2023-10-31T06:53:03;99897.72;;;10.45;100.00
75036;BME280;73110;51.658;5.826;2023-10-31T06:55:04;99891.53;;;10.44;100.00
75036;BME280;73110;51.658;5.826;2023-10-31T06:57:05;99890.72;;;10.44;100.00
75036;BME280;73110;51.658;5.826;2023-10-31T06:59:06;99895.81;;;10.45;100.00
75036;BME280;73110;51.658;5.826;2023-10-31T07:01:09;99896.22;;;10.48;100.00
75036;BME280;73110;51.658;5.826;2023-10-31T07:03:10;99900.50;;;10.49;100.00
75036;BME280;73110;51.658;5.826;2023-10-31T07:05:15;99915.28;;;10.51;100.00
75036;BME280;73110;51.658;5.826;2023-10-31T07:07:29;99917.22;;;10.51;100.00
75036;BME280;73110;51.658;5.826;2023-10-31T07:09:30;99921.50;;;10.52;100.00
75036;BME280;73110;51.658;5.826;2023-10-31T07:11:31;99921.06;;;10.50;100.00
75036;BME280;73110;51.658;5.826;2023-10-31T07:13:34;99911.34;;;10.49;100.00
75036;BME280;73110;51.658;5.826;2023-10-31T07:15:35;99914.88;;;10.49;100.00
75036;BME280;73110;51.658;5.826;2023-10-31T07:17:39;99913.28;;;10.48;100.00
75036;BME280;73110;51.658;5.826;2023-10-31T07:19:40;99917.59;;;10.49;100.00
75036;BME280;73110;51.658;5.826;2023-10-31T07:21:41;99907.50;;;10.50;100.00
75036;BME280;73110;51.658;5.826;2023-10-31T07:23:51;99912.22;;;10.53;100.00
75036;BME280;73110;51.658;5.826;2023-10-31T07:26:05;99915.31;;;10.55;100.00
75036;BME280;73110;51.658;5.826;2023-10-31T07:28:06;99899.09;;;10.58;100.00
75036;BME280;73110;51.658;5.826;2023-10-31T07:30:07;99908.81;;;10.59;100.00
75036;BME280;73110;51.658;5.826;2023-10-31T07:32:09;99911.19;;;10.61;100.00
75036;BME280;73110;51.658;5.826;2023-10-31T07:34:10;99910.44;;;10.64;100.00
75036;BME280;73110;51.658;5.826;2023-10-31T07:36:14;99912.78;;;10.66;100.00
75036;BME280;73110;51.658;5.826;2023-10-31T07:38:14;99916.28;;;10.66;100.00
75036;BME280;73110;51.658;5.826;2023-10-31T07:40:15;99915.91;;;10.68;100.00
75036;BME280;73110;51.658;5.826;2023-10-31T07:42:16;99917.84;;;10.67;100.00
75036;BME280;73110;51.658;5.826;2023-10-31T07:44:17;99925.56;;;10.65;100.00
75036;BME280;73110;51.658;5.826;2023-10-31T07:46:18;99914.28;;;10.63;100.00
75036;BME280;73110;51.658;5.826;2023-10-31T07:48:19;99911.94;;;10.61;100.00
75036;BME280;73110;51.658;5.826;2023-10-31T07:50:20;99919.66;;;10.59;100.00
75036;BME280;73110;51.658;5.826;2023-10-31T07:52:21;99919.59;;;10.56;100.00
75036;BME280;73110;51.658;5.826;2023-10-31T07:54:22;99920.34;;;10.53;100.00
75036;BME280;73110;51.658;5.826;2023-10-31T07:56:23;99928.06;;;10.51;100.00
75036;BME280;73110;51.658;5.826;2023-10-31T07:58:25;99919.13;;;10.50;100.00
75036;BME280;73110;51.658;5.826;2023-10-31T08:00:26;99929.22;;;10.50;100.00
75036;BME280;73110;51.658;5.826;2023-10-31T08:02:27;99934.63;;;10.50;100.00
75036;BME280;73110;51.658;5.826;2023-10-31T08:04:28;99939.28;;;10.49;100.00
75036;BME280;73110;51.658;5.826;2023-10-31T08:06:30;99936.56;;;10.49;100.00
75036;BME280;73110;51.658;5.826;2023-10-31T08:08:31;99942.78;;;10.50;100.00
75036;BME280;73110;51.658;5.826;2023-10-31T08:10:32;99943.91;;;10.49;100.00
75036;BME280;73110;51.658;5.826;2023-10-31T08:12:34;99943.13;;;10.48;100.00
75036;BME280;73110;51.658;5.826;2023-10-31T08:14:35;99949.34;;;10.49;100.00
75036;BME280;73110;51.658;5.826;2023-10-31T08:16:37;99944.72;;;10.49;100.00
75036;BME280;73110;51.658;5.826;2023-10-31T08:18:38;99949.34;;;10.49;100.00
75036;BME280;73110;51.658;5.826;2023-10-31T08:20:39;99954.78;;;10.49;100.00
75036;BME280;73110;51.658;5.826;2023-10-31T08:22:39;99954.78;;;10.49;100.00
75036;BME280;73110;51.658;5.826;2023-10-31T08:24:42;99957.13;;;10.50;100.00
75036;BME280;73110;51.658;5.826;2023-10-31T08:26:44;99961.81;;;10.53;100.00
75036;BME280;73110;51.658;5.826;2023-10-31T08:28:45;99958.03;;;10.58;100.00
75036;BME280;73110;51.658;5.826;2023-10-31T08:30:46;99965.81;;;10.59;100.00
75036;BME280;73110;51.658;5.826;2023-10-31T08:32:47;99968.94;;;10.61;100.00
75036;BME280;73110;51.658;5.826;2023-10-31T08:34:48;99967.44;;;10.64;100.00
75036;BME280;73110;51.658;5.826;2023-10-31T08:36:49;99962.06;;;10.68;100.00
75036;BME280;73110;51.658;5.826;2023-10-31T08:38:50;99962.53;;;10.73;100.00
75036;BME280;73110;51.658;5.826;2023-10-31T08:40:51;99967.66;;;10.79;100.00
75036;BME280;73110;51.658;5.826;2023-10-31T08:42:52;99964.72;;;10.87;100.00
75036;BME280;73110;51.658;5.826;2023-10-31T08:44:53;99977.97;;;10.92;100.00
75036;BME280;73110;51.658;5.826;2023-10-31T08:46:54;99970.31;;;10.98;100.00
75036;BME280;73110;51.658;5.826;2023-10-31T08:48:56;99976.19;;;11.04;100.00
75036;BME280;73110;51.658;5.826;2023-10-31T08:51:01;99983.25;;;11.08;100.00
75036;BME280;73110;51.658;5.826;2023-10-31T08:53:04;99980.56;;;11.12;100.00
75036;BME280;73110;51.658;5.826;2023-10-31T08:55:06;99990.34;;;11.17;100.00
75036;BME280;73110;51.658;5.826;2023-10-31T08:57:07;99990.81;;;11.22;100.00
75036;BME280;73110;51.658;5.826;2023-10-31T08:59:08;100002.47;;;11.23;100.00
75036;BME280;73110;51.658;5.826;2023-10-31T09:01:09;99988.59;;;11.28;100.00
75036;BME280;73110;51.658;5.826;2023-10-31T09:03:10;100000.28;;;11.32;100.00
75036;BME280;73110;51.658;5.826;2023-10-31T09:05:11;100000.31;;;11.36;100.00
75036;BME280;73110;51.658;5.826;2023-10-31T09:07:12;100010.91;;;11.41;100.00
75036;BME280;73110;51.658;5.826;2023-10-31T09:09:12;100000.84;;;11.45;100.00
75036;BME280;73110;51.658;5.826;2023-10-31T09:11:14;100000.94;;;11.52;100.00
75036;BME280;73110;51.658;5.826;2023-10-31T09:13:15;100010.38;;;11.62;100.00
75036;BME280;73110;51.658;5.826;2023-10-31T09:15:15;100018.19;;;11.64;100.00
75036;BME280;73110;51.658;5.826;2023-10-31T09:17:16;100012.81;;;11.67;100.00
75036;BME280;73110;51.658;5.826;2023-10-31T09:19:17;100017.47;;;11.70;100.00
75036;BME280;73110;51.658;5.826;2023-10-31T09:21:18;100024.16;;;11.77;100.00
75036;BME280;73110;51.658;5.826;2023-10-31T09:23:19;100023.94;;;11.89;100.00
75036;BME280;73110;51.658;5.826;2023-10-31T09:25:20;100022.91;;;11.97;100.00
75036;BME280;73110;51.658;5.826;2023-10-31T09:27:21;100031.56;;;12.07;100.00
75036;BME280;73110;51.658;5.826;2023-10-31T09:29:22;100037.91;;;12.18;100.00
75036;BME280;73110;51.658;5.826;2023-10-31T09:31:23;100043.03;;;12.27;100.00
75036;BME280;73110;51.658;5.826;2023-10-31T09:33:24;100044.63;;;12.28;100.00
75036;BME280;73110;51.658;5.826;2023-10-31T09:35:25;100038.44;;;12.31;100.00
75036;BME280;73110;51.658;5.826;2023-10-31T09:37:26;100044.66;;;12.31;100.00
75036;BME280;73110;51.658;5.826;2023-10-31T09:39:27;100052.44;;;12.29;100.00
75036;BME280;73110;51.658;5.826;2023-10-31T09:41:29;100057.88;;;12.29;100.00
75036;BME280;73110;51.658;5.826;2023-10-31T09:43:32;100053.94;;;12.27;100.00
75036;BME280;73110;51.658;5.826;2023-10-31T09:45:33;100056.69;;;12.30;100.00
75036;BME280;73110;51.658;5.826;2023-10-31T09:47:34;100059.41;;;12.30;100.00
75036;BME280;73110;51.658;5.826;2023-10-31T09:49:35;100071.13;;;12.34;100.00
75036;BME280;73110;51.658;5.826;2023-10-31T09:51:37;100068.06;;;12.40;100.00
75036;BME280;73110;51.658;5.826;2023-10-31T09:53:41;100065.03;;;12.45;100.00
75036;BME280;73110;51.658;5.826;2023-10-31T09:55:45;100063.91;;;12.49;100.00
75036;BME280;73110;51.658;5.826;2023-10-31T09:57:47;100071.28;;;12.49;100.00
75036;BME280;73110;51.658;5.826;2023-10-31T09:59:48;100070.53;;;12.48;100.00
75036;BME280;73110;51.658;5.826;2023-10-31T10:01:49;100073.28;;;12.52;100.00
75036;BME280;73110;51.658;5.826;2023-10-31T10:03:50;100079.91;;;12.55;100.00
75036;BME280;73110;51.658;5.826;2023-10-31T10:05:51;100088.13;;;12.58;100.00
75036;BME280;73110;51.658;5.826;2023-10-31T10:07:55;100086.25;;;12.66;100.00
75036;BME280;73110;51.658;5.826;2023-10-31T10:09:57;100094.44;;;12.70;100.00
75036;BME280;73110;51.658;5.826;2023-10-31T10:12:00;100100.69;;;12.70;100.00
75036;BME280;73110;51.658;5.826;2023-10-31T10:14:02;100105.75;;;12.72;100.00
75036;BME280;73110;51.658;5.826;2023-10-31T10:16:03;100099.97;;;12.77;100.00
75036;BME280;73110;51.658;5.826;2023-10-31T10:18:05;100114.38;;;12.77;100.00
75036;BME280;73110;51.658;5.826;2023-10-31T10:20:08;100105.81;;;12.79;100.00
75036;BME280;73110;51.658;5.826;2023-10-31T10:22:10;100112.88;;;12.83;100.00
75036;BME280;73110;51.658;5.826;2023-10-31T10:24:11;100121.78;;;12.80;100.00
75036;BME280;73110;51.658;5.826;2023-10-31T10:26:12;100116.72;;;12.79;100.00
75036;BME280;73110;51.658;5.826;2023-10-31T10:28:14;100123.28;;;12.74;100.00
75036;BME280;73110;51.658;5.826;2023-10-31T10:30:15;100129.06;;;12.69;100.00
75036;BME280;73110;51.658;5.826;2023-10-31T10:32:17;100133.28;;;12.63;100.00